Time;durP1;ratioP1;P1;durP2;ratioP2;P2;SDS_P1;SDS_P2;PMS_P1;PMS_P2;Temp;Humidity;BMP_temperature;BMP_pressure;BME280_temperature;BME280_humidity;BME280_pressure;Samples;Min_cycle;Max_cycle;Signal;HPM_P1;HPM_P2
2022/03/26 00:01:51;;;;;;;12.20;7.53;;;;;;;0.26;64.75;97377.16;5116332;28;20031;-68
2022/03/26 00:04:17;;;;;;;12.23;7.20;;;;;;;0.29;64.16;97379.78;5116315;27;20129;-68
2022/03/26 00:06:42;;;;;;;11.32;8.02;;;;;;;0.33;64.38;97381.56;5116194;28;20046;-68
2022/03/26 00:09:08;;;;;;;16.23;7.97;;;;;;;0.37;64.68;97388.47;5116136;28;20023;-68
2022/03/26 00:11:33;;;;;;;11.40;6.85;;;;;;;0.40;64.22;97379.09;5116420;28;20030;-68
2022/03/26 00:13:59;;;;;;;13.23;7.30;;;;;;;0.40;64.93;97385.09;5116108;28;20058;-68
2022/03/26 00:16:24;;;;;;;14.63;7.68;;;;;;;0.39;64.65;97391.06;5116105;28;20019;-68
2022/03/26 00:18:50;;;;;;;11.50;7.65;;;;;;;0.35;65.13;97391.88;5115890;28;20024;-68
2022/03/26 00:21:16;;;;;;;15.20;7.80;;;;;;;0.34;64.53;97393.59;5115956;28;20028;-68
2022/03/26 00:23:42;;;;;;;11.05;6.97;;;;;;;0.22;65.05;97388.25;5115983;28;20031;-68
2022/03/26 00:26:10;;;;;;;14.95;6.85;;;;;;;0.11;65.60;97386.34;5115958;28;20489;-68
2022/03/26 00:28:37;;;;;;;13.90;7.10;;;;;;;0.09;65.26;97400.88;5115938;28;20027;-68
2022/03/26 00:31:04;;;;;;;15.27;7.15;;;;;;;-0.04;65.58;97402.38;5115829;28;20065;-68
2022/03/26 00:33:30;;;;;;;12.00;7.13;;;;;;;-0.16;66.06;97402.16;5115664;28;20030;-68
2022/03/26 00:35:57;;;;;;;11.18;7.13;;;;;;;-0.14;66.36;97397.91;5115773;28;20385;-68
2022/03/26 00:38:22;;;;;;;9.20;6.25;;;;;;;-0.20;66.24;97390.09;5115729;28;20023;-68
2022/03/26 00:40:48;;;;;;;10.25;7.07;;;;;;;-0.27;66.30;97400.25;5115440;28;20050;-68
2022/03/26 00:43:14;;;;;;;17.45;9.50;;;;;;;-0.29;66.19;97401.94;5115611;27;20027;-68
2022/03/26 00:45:40;;;;;;;18.02;12.82;;;;;;;-0.28;66.09;97405.38;5115515;28;20066;-68
2022/03/26 00:48:06;;;;;;;14.20;7.80;;;;;;;-0.46;67.17;97400.72;5115458;28;20473;-68
2022/03/26 00:50:31;;;;;;;16.85;12.48;;;;;;;-0.47;66.71;97404.16;5115472;28;20068;-68
2022/03/26 00:52:57;;;;;;;15.98;8.73;;;;;;;-0.55;66.30;97399.72;5115497;28;20080;-68
2022/03/26 00:55:22;;;;;;;14.35;8.18;;;;;;;-0.58;67.00;97407.38;5115490;28;20028;-68
2022/03/26 00:57:48;;;;;;;21.77;10.68;;;;;;;-0.64;67.11;97399.53;5115298;28;20027;-68
2022/03/26 01:00:14;;;;;;;14.85;7.60;;;;;;;-0.73;67.44;97409.66;5115166;28;20084;-68
2022/03/26 01:02:40;;;;;;;11.90;8.00;;;;;;;-0.80;67.61;97409.50;5115289;28;20418;-68
2022/03/26 01:05:06;;;;;;;18.10;8.23;;;;;;;-0.80;67.62;97403.50;5115258;28;20487;-68
2022/03/26 01:07:32;;;;;;;12.63;7.28;;;;;;;-0.89;68.42;97404.16;5114627;28;20060;-68
2022/03/26 01:09:58;;;;;;;15.25;9.30;;;;;;;-0.88;69.19;97403.31;5114987;28;20042;-68
2022/03/26 01:12:25;;;;;;;10.60;6.80;;;;;;;-0.91;68.80;97408.41;5115118;28;20020;-68
2022/03/26 01:14:52;;;;;;;18.63;11.60;;;;;;;-0.92;68.93;97416.94;5115051;28;20018;-68
2022/03/26 01:17:19;;;;;;;18.48;9.48;;;;;;;-0.87;69.09;97415.34;5115248;28;20220;-68
2022/03/26 01:19:45;;;;;;;13.90;8.45;;;;;;;-0.76;70.56;97413.00;5114808;28;20022;-68
2022/03/26 01:22:11;;;;;;;11.68;7.18;;;;;;;-0.72;68.81;97414.78;5114868;28;20408;-68
2022/03/26 01:24:37;;;;;;;11.85;7.53;;;;;;;-0.77;68.36;97413.84;5114795;28;20023;-68
2022/03/26 01:27:03;;;;;;;11.45;7.30;;;;;;;-0.72;69.53;97412.22;5114722;28;20023;-68
2022/03/26 01:29:29;;;;;;;12.15;7.50;;;;;;;-0.72;68.94;97414.78;5114695;28;20028;-68
2022/03/26 01:31:54;;;;;;;11.13;7.07;;;;;;;-0.75;68.52;97419.00;5114604;28;20024;-68
2022/03/26 01:34:22;;;;;;;9.93;6.68;;;;;;;-0.82;68.46;97411.16;5114593;28;20026;-68
2022/03/26 01:36:48;;;;;;;12.10;6.45;;;;;;;-0.83;68.48;97417.16;5114481;28;20064;-68
2022/03/26 01:39:13;;;;;;;11.40;6.65;;;;;;;-0.81;69.17;97423.16;5114449;28;20402;-68
2022/03/26 01:41:39;;;;;;;15.02;7.53;;;;;;;-0.95;69.42;97416.88;5114148;28;20047;-68
2022/03/26 01:44:05;;;;;;;16.17;6.78;;;;;;;-0.95;69.37;97417.75;5114315;28;20561;-68
2022/03/26 01:46:44;;;;;;;9.35;6.70;;;;;;;-1.02;69.60;97424.44;5114310;28;20022;-68
2022/03/26 01:49:10;;;;;;;10.18;6.95;;;;;;;-1.04;69.72;97415.84;5114373;28;20016;-68
2022/03/26 01:51:35;;;;;;;10.68;6.57;;;;;;;-1.11;69.31;97418.25;5114371;28;20099;-68
2022/03/26 01:54:01;;;;;;;9.32;6.82;;;;;;;-1.15;69.37;97420.75;5114196;28;20028;-68
2022/03/26 01:56:27;;;;;;;10.40;6.78;;;;;;;-1.22;69.24;97426.56;5114194;28;20028;-68
2022/03/26 01:58:53;;;;;;;10.25;6.15;;;;;;;-1.30;69.38;97421.25;5114010;28;20023;-68
2022/03/26 02:01:19;;;;;;;15.57;7.75;;;;;;;-1.28;69.35;97422.16;5114105;28;20059;-68
2022/03/26 02:03:45;;;;;;;9.02;6.28;;;;;;;-1.23;69.29;97426.53;5113982;28;20035;-68
2022/03/26 02:06:10;;;;;;;10.75;7.30;;;;;;;-1.27;70.17;97428.16;5113899;28;20027;-68
2022/03/26 02:08:36;;;;;;;12.18;6.65;;;;;;;-1.13;70.58;97432.75;5113952;28;20038;-68
2022/03/26 02:11:03;;;;;;;13.43;7.10;;;;;;;-1.14;69.27;97426.75;5113909;28;20031;-68
2022/03/26 02:13:51;;;;;;;15.43;5.85;;;;;;;-1.20;68.80;97419.75;5113880;28;20047;-68
2022/03/26 02:16:17;;;;;;;8.85;5.93;;;;;;;-1.24;68.54;97432.50;5113822;28;20482;-68
2022/03/26 02:18:43;;;;;;;8.52;5.75;;;;;;;-1.25;68.59;97429.06;5112952;28;20031;-68
2022/03/26 02:21:09;;;;;;;12.32;6.85;;;;;;;-1.37;69.02;97442.50;5113771;28;20027;-68
2022/03/26 02:23:35;;;;;;;9.85;6.18;;;;;;;-1.37;69.55;97437.34;5113829;28;20024;-68
2022/03/26 02:26:01;;;;;;;9.98;6.35;;;;;;;-1.40;69.10;97438.16;5113676;28;20016;-68
2022/03/26 02:28:26;;;;;;;9.48;6.20;;;;;;;-1.56;69.53;97443.75;5113744;28;20028;-68
2022/03/26 02:30:52;;;;;;;11.60;6.15;;;;;;;-1.64;69.64;97443.56;5113821;28;20102;-68
2022/03/26 02:33:18;;;;;;;8.90;6.22;;;;;;;-1.63;69.48;97452.97;5113510;28;20112;-68
2022/03/26 02:35:44;;;;;;;10.45;6.20;;;;;;;-1.63;70.25;97447.00;5113710;28;20020;-68
2022/03/26 02:38:10;;;;;;;10.02;6.47;;;;;;;-1.54;69.97;97449.75;5113622;28;20020;-68
2022/03/26 02:40:35;;;;;;;11.60;6.78;;;;;;;-1.38;70.47;97450.16;5113380;28;20047;-68
2022/03/26 02:43:02;;;;;;;11.80;6.90;;;;;;;-1.34;69.77;97451.97;5113564;28;20423;-68
2022/03/26 02:45:29;;;;;;;8.60;6.45;;;;;;;-1.29;68.91;97452.94;5113415;28;20039;-68
2022/03/26 02:47:56;;;;;;;7.78;6.03;;;;;;;-1.20;68.48;97457.44;5113378;28;20036;-68
2022/03/26 02:50:22;;;;;;;11.23;6.93;;;;;;;-1.15;68.53;97466.09;5113468;28;20020;-68
2022/03/26 02:52:50;;;;;;;9.82;6.50;;;;;;;-1.20;68.40;97462.56;5113421;28;20373;-68
2022/03/26 02:55:17;;;;;;;15.48;6.80;;;;;;;-1.17;68.29;97467.78;5113395;28;20023;-68
2022/03/26 02:57:46;;;;;;;7.88;5.82;;;;;;;-1.27;68.00;97470.13;5113232;28;20474;-68
2022/03/26 03:00:13;;;;;;;13.85;6.70;;;;;;;-1.35;68.37;97468.19;5113326;28;20019;-68
2022/03/26 03:02:41;;;;;;;10.88;6.88;;;;;;;-1.38;68.82;97471.56;5113346;28;20027;-68
2022/03/26 03:05:07;;;;;;;9.80;6.20;;;;;;;-1.45;69.22;97477.34;5113471;28;20032;-67
2022/03/26 03:07:32;;;;;;;11.00;6.43;;;;;;;-1.48;68.76;97472.19;5113341;28;20027;-68
2022/03/26 03:09:58;;;;;;;10.35;6.70;;;;;;;-1.51;68.78;97475.50;5113263;28;20022;-68
2022/03/26 03:12:28;;;;;;;11.20;7.10;;;;;;;-1.60;68.95;97473.59;5113318;28;20077;-68
2022/03/26 03:14:54;;;;;;;8.40;6.27;;;;;;;-1.62;68.96;97471.81;5113340;28;20473;-68
2022/03/26 03:17:20;;;;;;;10.75;7.13;;;;;;;-1.64;68.92;97476.91;5113038;28;20019;-68
2022/03/26 03:19:46;;;;;;;9.77;6.70;;;;;;;-1.70;69.07;97466.50;5113070;28;20031;-68
2022/03/26 03:22:12;;;;;;;10.15;7.00;;;;;;;-1.78;69.06;97472.28;5113222;28;20028;-68
2022/03/26 03:24:38;;;;;;;12.07;7.47;;;;;;;-1.84;69.23;97471.28;5113208;28;20431;-68
2022/03/26 03:27:04;;;;;;;12.70;7.03;;;;;;;-1.89;69.73;97471.16;5113181;28;20027;-68
2022/03/26 03:29:30;;;;;;;21.77;12.40;;;;;;;-1.86;70.16;97472.94;5114045;28;20019;-68
2022/03/26 03:31:56;;;;;;;12.57;7.95;;;;;;;-1.78;70.83;97479.09;5116915;28;20370;-68
2022/03/26 03:34:22;;;;;;;12.77;7.40;;;;;;;-1.65;71.74;97478.59;5116916;28;20028;-68
2022/03/26 03:36:47;;;;;;;12.13;7.43;;;;;;;-1.40;71.39;97480.91;5116793;27;20024;-68
2022/03/26 03:39:13;;;;;;;12.43;7.47;;;;;;;-1.25;70.16;97477.84;5116836;28;20037;-68
2022/03/26 03:41:39;;;;;;;12.60;7.45;;;;;;;-1.16;70.27;97482.34;5116587;28;20047;-68
2022/03/26 03:44:06;;;;;;;13.38;7.88;;;;;;;-1.12;69.76;97468.72;5116713;28;20473;-68
2022/03/26 03:46:33;;;;;;;10.02;7.03;;;;;;;-0.84;69.42;97478.78;5116743;28;20024;-68
2022/03/26 03:48:59;;;;;;;18.75;7.80;;;;;;;-0.72;68.70;97485.91;5116705;28;20084;-68
2022/03/26 03:51:24;;;;;;;11.68;7.38;;;;;;;-0.70;68.60;97474.81;5116678;27;20098;-68
2022/03/26 03:53:50;;;;;;;12.48;6.82;;;;;;;-0.59;68.00;97484.47;5116548;28;20055;-68
2022/03/26 03:56:16;;;;;;;11.55;7.03;;;;;;;-0.53;67.33;97489.75;5116410;28;20034;-68
2022/03/26 03:58:41;;;;;;;10.20;6.07;;;;;;;-0.49;67.14;97490.69;5116405;28;20130;-68
2022/03/26 04:01:07;;;;;;;9.70;6.97;;;;;;;-0.50;67.82;97484.66;5116447;28;20408;-68
2022/03/26 04:03:33;;;;;;;10.02;7.15;;;;;;;-0.41;66.84;97491.69;5116355;28;20084;-68
2022/03/26 04:05:59;;;;;;;10.35;7.20;;;;;;;-0.42;67.09;97485.69;5116286;28;20027;-68
2022/03/26 04:08:25;;;;;;;9.80;6.63;;;;;;;-0.37;65.84;97492.66;5116431;27;20024;-68
2022/03/26 04:10:51;;;;;;;7.80;5.63;;;;;;;-0.45;65.64;97490.75;5116247;28;20024;-68
2022/03/26 04:13:16;;;;;;;10.10;7.22;;;;;;;-0.53;66.28;97495.75;5116111;28;20026;-68
2022/03/26 04:15:42;;;;;;;11.75;7.45;;;;;;;-0.52;66.36;97492.34;5116221;27;20080;-68
2022/03/26 04:18:07;;;;;;;9.27;6.80;;;;;;;-0.51;66.46;97490.66;5116137;28;20037;-68
2022/03/26 04:20:35;;;;;;;11.07;6.55;;;;;;;-0.54;65.64;97500.88;5116037;28;20054;-68
2022/03/26 04:23:00;;;;;;;9.82;6.03;;;;;;;-0.70;66.26;97504.78;5116000;28;20026;-68
2022/03/26 04:25:26;;;;;;;7.88;5.65;;;;;;;-0.63;66.16;97506.69;5115987;28;20012;-68
2022/03/26 04:27:51;;;;;;;11.23;6.55;;;;;;;-0.73;65.87;97508.16;5116081;28;20031;-68
2022/03/26 04:30:17;;;;;;;8.35;6.25;;;;;;;-0.85;65.99;97507.91;5116044;28;20012;-68
2022/03/26 04:32:43;;;;;;;10.68;6.32;;;;;;;-0.89;66.20;97506.94;5115785;28;20493;-68
2022/03/26 04:35:09;;;;;;;8.93;5.50;;;;;;;-0.86;66.25;97511.28;5115784;28;20028;-68
2022/03/26 04:37:35;;;;;;;10.45;6.90;;;;;;;-0.97;66.58;97511.06;5115682;28;20020;-68
2022/03/26 04:40:05;;;;;;;10.95;6.40;;;;;;;-0.94;66.91;97505.97;5115482;27;20050;-68
2022/03/26 04:42:30;;;;;;;9.75;6.10;;;;;;;-0.90;67.06;97511.19;5114930;27;20108;-67
2022/03/26 04:44:56;;;;;;;10.55;6.95;;;;;;;-0.84;67.02;97509.63;5115512;28;20062;-67
2022/03/26 04:47:22;;;;;;;11.10;5.70;;;;;;;-0.84;67.17;97514.75;5115599;28;20102;-67
2022/03/26 04:49:47;;;;;;;10.73;6.68;;;;;;;-0.90;67.39;97507.78;5115698;28;20099;-67
2022/03/26 04:52:13;;;;;;;10.10;6.57;;;;;;;-0.71;68.08;97506.50;5115420;28;20015;-67
2022/03/26 04:54:39;;;;;;;7.93;6.03;;;;;;;-0.07;66.97;97515.53;5115465;28;20020;-67
2022/03/26 04:57:05;;;;;;;8.32;5.55;;;;;;;0.73;64.18;97524.72;5115273;28;20044;-67
2022/03/26 04:59:31;;;;;;;8.48;5.43;;;;;;;1.51;61.91;97526.75;5115121;28;20553;-67
2022/03/26 05:01:57;;;;;;;7.68;5.75;;;;;;;2.02;59.75;97512.78;5115245;28;20024;-67
2022/03/26 05:04:23;;;;;;;7.28;5.25;;;;;;;2.76;57.50;97520.41;5115150;28;20438;-67
2022/03/26 05:06:48;;;;;;;7.40;4.82;;;;;;;3.40;55.05;97523.47;5115100;28;20085;-67
2022/03/26 05:09:14;;;;;;;8.82;5.60;;;;;;;4.12;52.78;97535.91;5115163;28;20024;-68
2022/03/26 05:11:42;;;;;;;8.05;5.07;;;;;;;4.79;51.03;97538.66;5113825;28;20465;-67
2022/03/26 05:14:08;;;;;;;10.77;5.13;;;;;;;5.59;48.96;97529.09;5114891;28;20084;-67
2022/03/26 05:16:34;;;;;;;8.65;5.60;;;;;;;6.18;47.22;97534.13;5113769;28;20047;-67
2022/03/26 05:19:00;;;;;;;8.77;6.03;;;;;;;6.87;45.81;97540.69;5114916;28;20103;-67
2022/03/26 05:21:26;;;;;;;7.57;5.72;;;;;;;7.44;44.61;97541.97;5114763;28;20469;-67
2022/03/26 05:23:51;;;;;;;10.27;6.05;;;;;;;7.93;43.53;97542.31;5114894;28;20020;-67
2022/03/26 05:26:21;;;;;;;8.15;6.18;;;;;;;8.53;42.22;97539.84;5114718;28;20024;-67
2022/03/26 05:28:46;;;;;;;11.00;7.18;;;;;;;9.18;40.78;97545.88;5114702;28;20027;-67
2022/03/26 05:31:12;;;;;;;8.55;6.38;;;;;;;9.82;39.40;97539.53;5114640;28;20092;-67
2022/03/26 05:33:38;;;;;;;11.52;6.28;;;;;;;10.40;37.94;97547.09;5114689;27;20026;-67
2022/03/26 05:36:04;;;;;;;9.70;6.50;;;;;;;10.82;37.22;97542.72;5114584;27;20029;-68
2022/03/26 05:38:31;;;;;;;8.77;5.75;;;;;;;11.22;37.16;97546.16;5114450;28;20019;-68
2022/03/26 05:40:57;;;;;;;9.57;5.80;;;;;;;11.82;36.03;97543.75;5114215;28;20104;-68
2022/03/26 05:43:24;;;;;;;9.55;6.35;;;;;;;12.46;34.91;97544.63;5114451;28;20028;-68
2022/03/26 05:45:51;;;;;;;8.45;5.93;;;;;;;12.75;34.46;97544.66;5114424;28;20492;-68
2022/03/26 05:48:19;;;;;;;11.05;6.43;;;;;;;13.34;33.82;97549.81;5114788;28;20042;-68
2022/03/26 05:50:46;;;;;;;7.32;5.68;;;;;;;13.72;32.74;97546.81;5115240;28;20031;-68
2022/03/26 05:53:11;;;;;;;7.68;5.95;;;;;;;14.27;31.75;97543.97;5113407;28;20028;-68
2022/03/26 05:55:37;;;;;;;9.05;5.80;;;;;;;14.81;31.46;97549.94;5114286;28;20030;-68
2022/03/26 05:58:03;;;;;;;7.43;5.88;;;;;;;15.34;31.33;97551.31;5114224;28;20028;-68
2022/03/26 06:00:29;;;;;;;7.57;6.22;;;;;;;16.02;30.27;97549.41;5114088;28;20023;-68
2022/03/26 06:02:55;;;;;;;7.20;5.55;;;;;;;16.50;29.67;97547.22;5114276;28;20076;-68
2022/03/26 06:05:21;;;;;;;7.32;6.45;;;;;;;16.66;28.08;97541.25;5114202;28;20028;-68
2022/03/26 06:07:47;;;;;;;6.22;5.10;;;;;;;16.77;29.09;97551.31;5114158;28;20569;-68
2022/03/26 06:10:13;;;;;;;6.90;4.78;;;;;;;16.95;30.00;97546.94;5114084;27;20027;-68
2022/03/26 06:12:39;;;;;;;12.45;6.05;;;;;;;17.41;28.02;97549.16;5113946;28;20015;-68
2022/03/26 06:15:06;;;;;;;9.68;6.43;;;;;;;17.64;27.15;97555.06;5114030;28;20027;-68
2022/03/26 06:17:32;;;;;;;9.02;6.68;;;;;;;17.20;27.71;97559.00;5113860;28;20023;-68
2022/03/26 06:19:58;;;;;;;7.30;6.15;;;;;;;16.48;29.47;97556.16;5113907;28;20015;-67
2022/03/26 06:22:23;;;;;;;8.02;6.40;;;;;;;16.19;29.52;97555.72;5113992;28;20016;-67
2022/03/26 06:24:49;;;;;;;7.32;6.10;;;;;;;16.02;29.86;97557.31;5113696;28;20030;-67
2022/03/26 06:27:15;;;;;;;9.15;6.88;;;;;;;15.86;30.00;97551.81;5113732;28;20016;-68
2022/03/26 06:29:41;;;;;;;13.50;6.50;;;;;;;15.52;30.49;97560.25;5113693;28;20040;-67
2022/03/26 06:32:07;;;;;;;7.30;6.32;;;;;;;14.93;31.42;97565.22;5113785;27;20023;-68
2022/03/26 06:34:33;;;;;;;10.00;6.35;;;;;;;14.92;30.82;97571.44;5113672;28;20024;-68
2022/03/26 06:36:59;;;;;;;13.23;6.88;;;;;;;14.65;32.24;97564.53;5113597;28;20029;-68
2022/03/26 06:39:25;;;;;;;9.18;6.80;;;;;;;14.45;32.07;97567.06;5113260;28;20027;-67
2022/03/26 06:41:51;;;;;;;11.60;7.13;;;;;;;13.98;32.82;97573.97;5113572;28;20077;-67
2022/03/26 06:44:17;;;;;;;8.90;6.10;;;;;;;14.22;31.98;97574.88;5113537;28;20020;-68
2022/03/26 06:46:42;;;;;;;10.25;6.75;;;;;;;14.24;32.45;97577.47;5113551;28;20023;-69
2022/03/26 06:49:09;;;;;;;14.23;6.53;;;;;;;14.14;33.36;97583.03;5113522;28;20024;-67
2022/03/26 06:51:36;;;;;;;10.80;7.00;;;;;;;14.38;32.16;97584.81;5113478;28;20070;-69
2022/03/26 06:54:02;;;;;;;8.18;7.07;;;;;;;14.61;32.67;97591.88;5113537;28;20533;-68
2022/03/26 06:56:28;;;;;;;9.70;7.18;;;;;;;14.51;32.26;97588.72;5113590;28;20473;-68
2022/03/26 06:58:55;;;;;;;9.43;7.22;;;;;;;14.59;31.95;97592.84;5113380;28;20100;-67
2022/03/26 07:01:20;;;;;;;9.10;7.18;;;;;;;14.33;31.41;97590.25;5113370;28;20020;-69
2022/03/26 07:03:48;;;;;;;9.15;7.45;;;;;;;14.20;31.08;97589.84;5113318;28;20019;-68
2022/03/26 07:06:15;;;;;;;10.90;6.68;;;;;;;14.14;31.81;97572.53;5117243;28;20050;-67
2022/03/26 07:08:42;;;;;;;8.05;6.38;;;;;;;14.36;32.84;97595.41;5117530;27;20411;-67
2022/03/26 07:11:09;;;;;;;8.57;6.60;;;;;;;14.31;32.19;97589.47;5117384;28;20055;-68
2022/03/26 07:13:34;;;;;;;8.80;6.97;;;;;;;14.63;31.08;97590.03;5117302;28;20028;-68
2022/03/26 07:16:01;;;;;;;10.90;7.15;;;;;;;14.48;30.79;97591.47;5117451;28;20026;-66
2022/03/26 07:18:26;;;;;;;8.80;6.97;;;;;;;14.59;31.22;97588.44;5117252;28;20100;-68
2022/03/26 07:20:57;;;;;;;8.95;5.65;;;;;;;15.00;30.92;97590.44;5117145;27;20027;-67
2022/03/26 07:23:23;;;;;;;9.48;6.40;;;;;;;15.47;29.54;97590.38;5115990;27;20028;-67
2022/03/26 07:25:49;;;;;;;8.68;7.35;;;;;;;15.59;30.26;97589.00;5115938;28;20039;-66
2022/03/26 07:28:15;;;;;;;8.52;6.93;;;;;;;16.00;28.58;97596.09;5117164;28;20023;-67
2022/03/26 07:30:41;;;;;;;7.82;6.70;;;;;;;16.27;28.91;97591.41;5117050;28;20393;-68
2022/03/26 07:33:07;;;;;;;10.88;7.30;;;;;;;16.60;27.60;97595.22;5116991;28;20541;-68
2022/03/26 07:35:33;;;;;;;11.00;6.45;;;;;;;16.47;27.30;97589.66;5117060;28;20389;-66
2022/03/26 07:37:59;;;;;;;9.70;6.28;;;;;;;16.12;26.54;97587.66;5116796;28;20023;-66
2022/03/26 07:40:25;;;;;;;16.88;6.82;;;;;;;15.85;26.01;97587.88;5116531;28;20127;-68
2022/03/26 07:42:51;;;;;;;9.23;5.85;;;;;;;15.78;26.82;97582.00;5116760;28;20492;-67
2022/03/26 07:45:16;;;;;;;7.88;5.72;;;;;;;15.60;26.44;97580.16;5116821;28;20015;-67
2022/03/26 07:47:42;;;;;;;7.78;5.97;;;;;;;15.56;25.68;97582.06;5116762;28;20051;-67
2022/03/26 07:50:09;;;;;;;7.88;6.55;;;;;;;15.59;27.06;97581.09;5116660;28;20026;-66
2022/03/26 07:52:36;;;;;;;9.65;6.03;;;;;;;15.53;26.93;97575.13;5116637;28;20023;-67
2022/03/26 07:55:03;;;;;;;9.95;5.85;;;;;;;15.61;26.24;97584.50;5116516;28;20376;-67
2022/03/26 07:57:29;;;;;;;8.93;5.40;;;;;;;15.67;26.68;97576.34;5116530;28;20015;-67
2022/03/26 07:59:55;;;;;;;6.97;5.57;;;;;;;15.79;25.78;97581.09;5116574;27;20031;-66
2022/03/26 08:02:24;;;;;;;8.00;5.35;;;;;;;16.22;25.14;97587.25;5116448;28;20054;-67
2022/03/26 08:04:50;;;;;;;7.97;5.82;;;;;;;16.08;24.07;97582.56;5116388;28;20024;-66
2022/03/26 08:07:17;;;;;;;6.43;4.82;;;;;;;15.81;24.82;97581.03;5116402;28;20020;-66
2022/03/26 08:09:43;;;;;;;7.38;5.50;;;;;;;15.96;26.12;97583.94;5116392;28;20027;-67
2022/03/26 08:12:10;;;;;;;7.78;5.47;;;;;;;16.32;26.44;97570.06;5116377;28;20016;-67
2022/03/26 08:14:35;;;;;;;7.70;4.97;;;;;;;16.31;25.04;97575.41;5116319;28;20036;-67
2022/03/26 08:17:02;;;;;;;10.15;4.75;;;;;;;16.58;25.32;97570.66;5114977;28;20023;-67
2022/03/26 08:19:28;;;;;;;7.63;5.43;;;;;;;16.58;25.10;97575.94;5116087;28;20023;-66
2022/03/26 08:21:54;;;;;;;8.27;5.03;;;;;;;16.66;25.57;97571.16;5116060;28;20016;-67
2022/03/26 08:24:20;;;;;;;6.10;5.07;;;;;;;16.52;25.34;97573.56;5116097;28;20100;-66
2022/03/26 08:26:46;;;;;;;6.85;5.35;;;;;;;16.34;24.94;97576.13;5115989;28;20029;-67
2022/03/26 08:29:12;;;;;;;8.57;5.38;;;;;;;15.93;24.27;97566.47;5115923;28;20030;-66
2022/03/26 08:31:37;;;;;;;6.85;5.07;;;;;;;15.73;26.61;97569.94;5116017;28;20020;-67
2022/03/26 08:34:03;;;;;;;12.50;5.45;;;;;;;15.55;27.12;97564.53;5115858;28;20081;-67
2022/03/26 08:36:30;;;;;;;7.38;5.38;;;;;;;15.91;26.43;97561.25;5115785;28;20026;-66
2022/03/26 08:38:56;;;;;;;6.20;4.95;;;;;;;16.25;24.87;97556.28;5115617;28;20035;-66
2022/03/26 08:41:23;;;;;;;9.50;5.32;;;;;;;16.32;25.72;97558.66;5115533;28;20046;-67
2022/03/26 08:43:50;;;;;;;6.72;5.43;;;;;;;16.17;24.97;97561.06;5115553;28;20020;-67
2022/03/26 08:46:18;;;;;;;6.32;4.90;;;;;;;16.32;25.33;97551.59;5115598;28;20096;-67
2022/03/26 08:48:45;;;;;;;6.93;5.25;;;;;;;16.17;24.26;97556.63;5115529;28;20055;-67
2022/03/26 08:51:11;;;;;;;5.93;4.72;;;;;;;15.98;23.20;97555.75;5115512;28;20023;-67
2022/03/26 08:53:37;;;;;;;6.95;4.90;;;;;;;16.24;25.37;97553.69;5115424;28;20043;-66
2022/03/26 08:56:05;;;;;;;6.03;4.47;;;;;;;16.43;21.49;97548.44;5115380;28;20104;-67
2022/03/26 08:58:31;;;;;;;5.57;3.95;;;;;;;16.50;21.00;97547.22;5115311;28;20076;-67
2022/03/26 09:00:57;;;;;;;6.32;4.20;;;;;;;16.74;21.58;97549.66;5115320;28;20040;-66
2022/03/26 09:03:23;;;;;;;8.05;4.10;;;;;;;16.66;23.03;97549.16;5115194;28;20084;-67
2022/03/26 09:05:50;;;;;;;4.45;3.70;;;;;;;16.60;20.28;97544.16;5115166;28;20500;-66
2022/03/26 09:08:16;;;;;;;4.78;3.47;;;;;;;16.64;20.47;97545.72;5115247;28;20101;-67
2022/03/26 09:10:42;;;;;;;4.95;3.83;;;;;;;16.68;18.92;97534.94;5115311;28;20102;-67
2022/03/26 09:13:08;;;;;;;4.90;3.85;;;;;;;16.70;20.53;97541.97;5115164;27;20051;-67
2022/03/26 09:15:34;;;;;;;4.80;3.65;;;;;;;16.54;19.43;97540.91;5115023;28;20468;-67
2022/03/26 09:18:00;;;;;;;7.30;4.10;;;;;;;16.41;18.56;97529.19;5114845;28;20015;-66
2022/03/26 09:20:26;;;;;;;5.70;3.58;;;;;;;16.27;20.42;97535.97;5114854;27;20522;-67
2022/03/26 09:22:52;;;;;;;6.50;3.80;;;;;;;16.03;19.08;97530.84;5114812;28;20028;-66
2022/03/26 09:25:19;;;;;;;5.32;3.80;;;;;;;15.90;20.20;97527.00;5114865;28;20034;-67
2022/03/26 09:27:45;;;;;;;4.10;3.70;;;;;;;15.64;19.66;97535.13;5114775;28;20066;-66
2022/03/26 09:30:11;;;;;;;6.00;4.10;;;;;;;15.81;22.37;97530.91;5114605;28;20030;-66
2022/03/26 09:32:36;;;;;;;4.95;3.50;;;;;;;15.88;20.95;97526.22;5114758;28;20865;-67
2022/03/26 09:35:03;;;;;;;4.13;3.15;;;;;;;16.04;20.19;97522.00;5114517;28;20432;-67
2022/03/26 09:37:29;;;;;;;5.00;3.75;;;;;;;16.17;18.53;97516.19;5114575;28;20102;-67
2022/03/26 09:39:55;;;;;;;3.53;3.08;;;;;;;16.22;19.58;97515.97;5114526;28;20127;-68
2022/03/26 09:42:25;;;;;;;4.43;3.38;;;;;;;15.72;18.23;97504.94;5114484;28;20465;-67
2022/03/26 09:44:55;;;;;;;3.85;3.45;;;;;;;15.56;19.13;97510.03;5114321;28;20016;-67
2022/03/26 09:47:21;;;;;;;4.20;3.80;;;;;;;15.65;21.51;97512.25;5114334;28;20031;-67
2022/03/26 09:49:46;;;;;;;4.15;3.63;;;;;;;15.69;18.75;97500.66;5114442;28;20107;-67
2022/03/26 09:52:13;;;;;;;5.95;3.83;;;;;;;15.84;20.28;97503.53;5114308;28;20107;-67
2022/03/26 09:54:39;;;;;;;4.15;3.35;;;;;;;15.70;18.15;97507.63;5114321;28;20050;-67
2022/03/26 09:57:08;;;;;;;4.35;3.95;;;;;;;15.70;18.52;97499.72;5114167;28;20027;-67
2022/03/26 09:59:35;;;;;;;5.90;4.15;;;;;;;15.66;18.85;97501.63;5114085;28;20035;-67
2022/03/26 10:02:02;;;;;;;5.32;4.20;;;;;;;15.79;19.61;97496.69;5114136;28;20099;-67
2022/03/26 10:04:39;;;;;;;5.18;3.92;;;;;;;16.03;18.85;97498.31;5114095;28;20153;-67
2022/03/26 10:07:06;;;;;;;4.50;4.03;;;;;;;16.15;19.05;97496.91;5114038;28;20427;-67
2022/03/26 10:09:32;;;;;;;8.25;4.25;;;;;;;16.29;18.67;97489.22;5114034;28;20051;-67
2022/03/26 10:12:21;;;;;;;7.20;4.82;;;;;;;16.28;19.39;97492.78;5113906;28;20054;-67
2022/03/26 10:14:49;;;;;;;5.20;4.68;;;;;;;16.51;19.00;97487.34;5113729;28;20039;-67
2022/03/26 10:17:17;;;;;;;7.53;4.28;;;;;;;16.54;17.43;97480.16;5114008;28;20164;-67
2022/03/26 10:19:59;;;;;;;6.20;4.53;;;;;;;16.51;19.20;97474.16;5113811;28;20079;-67
2022/03/26 10:22:33;;;;;;;7.65;5.38;;;;;;;16.66;19.58;97485.78;5113928;27;20031;-67
2022/03/26 10:25:03;;;;;;;6.40;4.80;;;;;;;16.58;19.68;97472.09;5113919;28;20346;-67
2022/03/26 10:28:00;;;;;;;7.72;4.30;;;;;;;16.76;19.20;97480.91;5113932;28;20027;-67
2022/03/26 10:33:27;;;;;;;8.65;4.20;;;;;;;16.88;19.18;97475.03;5113926;28;20030;-67
2022/03/26 10:35:55;;;;;;;7.72;4.80;;;;;;;16.97;18.99;97464.91;5113500;28;20102;-67
2022/03/26 10:38:34;;;;;;;7.10;5.00;;;;;;;16.84;20.01;97462.03;5110610;28;20035;-68
2022/03/26 10:41:01;;;;;;;4.65;3.95;;;;;;;16.73;17.21;97454.63;5112851;28;20521;-57
2022/03/26 10:43:28;;;;;;;9.45;4.68;;;;;;;16.82;19.05;97450.72;5113090;28;20460;-57
2022/03/26 10:45:57;;;;;;;5.03;4.22;;;;;;;16.95;18.83;97456.22;5112993;28;20121;-58
2022/03/26 10:48:25;;;;;;;5.97;4.25;;;;;;;16.91;18.05;97452.88;5113447;28;20019;-57
2022/03/26 10:50:55;;;;;;;8.93;4.75;;;;;;;17.10;19.39;97446.72;5113458;28;20020;-53
2022/03/26 10:53:21;;;;;;;7.50;4.68;;;;;;;17.22;18.52;97440.78;5112887;28;20038;-64
2022/03/26 10:55:48;;;;;;;8.40;4.65;;;;;;;17.22;17.32;97445.25;5113026;28;20474;-64
2022/03/26 10:58:14;;;;;;;5.13;4.28;;;;;;;17.14;16.61;97446.50;5113216;28;20028;-60
2022/03/26 11:00:44;;;;;;;5.80;4.40;;;;;;;17.12;17.01;97435.13;5113293;28;20035;-58
2022/03/26 11:03:10;;;;;;;5.03;4.40;;;;;;;16.76;16.73;97441.28;5113380;28;20035;-62
2022/03/26 11:05:38;;;;;;;8.45;4.60;;;;;;;16.63;16.99;97430.44;5113372;28;20016;-63
2022/03/26 11:08:05;;;;;;;6.03;4.72;;;;;;;16.55;19.33;97434.31;5113012;28;20015;-54
2022/03/26 11:10:32;;;;;;;6.13;4.80;;;;;;;16.80;20.27;97424.34;5113173;28;20034;-53
2022/03/26 11:13:00;;;;;;;6.38;4.47;;;;;;;16.60;18.77;97422.69;5113284;28;20043;-61
2022/03/26 11:15:34;;;;;;;6.93;5.30;;;;;;;16.64;19.37;97414.53;5113201;28;20035;-56
2022/03/26 11:18:37;;;;;;;8.95;4.78;;;;;;;16.80;18.58;97414.63;5113199;28;20507;-62
2022/03/26 11:21:19;;;;;;;6.40;4.70;;;;;;;16.99;18.40;97404.94;5112842;28;20035;-63
2022/03/26 11:24:08;;;;;;;8.27;5.97;;;;;;;17.02;18.67;97413.56;5112797;28;20404;-57
2022/03/26 11:27:05;;;;;;;6.60;4.65;;;;;;;17.09;18.05;97406.19;5112427;28;20032;-57
2022/03/26 11:30:03;;;;;;;5.85;4.82;;;;;;;17.13;17.27;97394.53;5111475;28;20434;-57
2022/03/26 11:32:45;;;;;;;8.60;4.82;;;;;;;16.96;17.97;97399.78;5113090;28;20024;-60
2022/03/26 11:35:16;;;;;;;9.05;4.78;;;;;;;16.88;18.74;97403.69;5113056;28;20028;-52